Time;durP1;ratioP1;P1;durP2;ratioP2;P2;SDS_P1;SDS_P2;PMS_P1;PMS_P2;Temp;Humidity;BMP_temperature;BMP_pressure;BME280_temperature;BME280_humidity;BME280_pressure;Samples;Min_cycle;Max_cycle;Signal;HPM_P1;HPM_P2
2022/10/19 00:00:29;;;;;;;1999.90;999.90;;;11.30;99.90;;;;;;5073355;28;20178;-72
2022/10/19 00:02:54;;;;;;;1999.90;999.90;;;11.30;99.90;;;;;;5073110;28;20280;-71
2022/10/19 00:05:20;;;;;;;1999.90;999.90;;;11.20;99.90;;;;;;5073317;28;20185;-71
2022/10/19 00:07:45;;;;;;;1999.90;999.90;;;11.20;99.90;;;;;;5072948;28;20199;-71
2022/10/19 00:10:12;;;;;;;1999.90;999.90;;;11.10;99.90;;;;;;5073187;28;20171;-71
2022/10/19 00:12:38;;;;;;;1999.90;999.90;;;11.00;99.90;;;;;;5072669;28;20197;-71
2022/10/19 00:15:04;;;;;;;1999.90;999.90;;;11.00;99.90;;;;;;5072909;28;20408;-71
2022/10/19 00:17:30;;;;;;;1999.90;999.90;;;11.00;99.90;;;;;;5072779;28;20427;-71
2022/10/19 00:19:55;;;;;;;1999.90;999.90;;;11.00;99.90;;;;;;5072935;28;20401;-71
2022/10/19 00:22:21;;;;;;;1999.90;999.90;;;11.00;99.90;;;;;;5072774;28;20212;-71
2022/10/19 00:24:47;;;;;;;1999.90;999.90;;;11.00;99.90;;;;;;5072876;28;20636;-71
2022/10/19 00:27:13;;;;;;;1999.90;999.90;;;10.90;99.90;;;;;;5072593;28;20245;-71
2022/10/19 00:29:38;;;;;;;1999.90;999.90;;;10.90;99.90;;;;;;5072701;28;20764;-71
2022/10/19 00:32:04;;;;;;;1999.90;999.90;;;10.80;99.90;;;;;;5072712;28;20194;-71
2022/10/19 00:34:29;;;;;;;1999.90;999.90;;;10.90;99.90;;;;;;5072666;28;20179;-71
2022/10/19 00:36:55;;;;;;;1999.90;999.90;;;10.90;99.90;;;;;;5072569;28;20178;-71
2022/10/19 00:39:21;;;;;;;1999.90;999.90;;;10.80;99.90;;;;;;5072609;28;20525;-71
2022/10/19 00:41:47;;;;;;;1999.90;999.90;;;10.80;99.90;;;;;;5072319;28;20198;-71
2022/10/19 00:44:12;;;;;;;1999.90;999.90;;;10.90;99.90;;;;;;5071936;28;20168;-71
2022/10/19 00:46:43;;;;;;;1999.90;999.90;;;10.90;99.90;;;;;;5072273;28;20546;-71
2022/10/19 00:49:16;;;;;;;1999.90;999.90;;;10.80;99.90;;;;;;5072364;28;20171;-71
2022/10/19 00:51:51;;;;;;;1999.90;999.90;;;10.90;99.90;;;;;;5072223;28;20445;-71
2022/10/19 00:54:18;;;;;;;1999.90;999.90;;;10.80;99.90;;;;;;5072388;28;20840;-71
2022/10/19 00:56:46;;;;;;;1999.90;999.90;;;10.90;99.90;;;;;;5072114;28;20405;-71
2022/10/19 00:59:15;;;;;;;1999.90;999.90;;;10.80;99.90;;;;;;5072188;28;20423;-70
2022/10/19 01:01:43;;;;;;;1999.90;999.90;;;10.80;99.90;;;;;;5072137;28;20575;-71
2022/10/19 01:04:09;;;;;;;1999.90;999.90;;;10.80;99.90;;;;;;5072355;28;20770;-71
2022/10/19 01:06:36;;;;;;;1999.90;999.90;;;10.80;99.90;;;;;;5071900;28;20448;-69
2022/10/19 01:09:01;;;;;;;1999.90;999.90;;;10.80;99.90;;;;;;5054115;28;20413;-71
2022/10/19 01:12:18;;;;;;;1999.90;999.90;;;10.80;99.90;;;;;;5072624;28;20432;-71
2022/10/19 01:15:05;;;;;;;1999.90;999.90;;;10.80;99.90;;;;;;5016713;28;20190;-71
2022/10/19 01:17:42;;;;;;;1999.90;999.90;;;10.70;99.90;;;;;;5071807;28;20435;-71
2022/10/19 01:20:26;;;;;;;1999.90;999.90;;;10.70;99.90;;;;;;5072080;28;20407;-71
2022/10/19 01:23:13;;;;;;;1999.90;999.90;;;10.70;99.90;;;;;;5071827;28;20506;-71
2022/10/19 01:26:23;;;;;;;1999.90;999.90;;;10.70;99.90;;;;;;5071919;28;20851;-71
2022/10/19 01:28:49;;;;;;;1999.90;999.90;;;10.70;99.90;;;;;;5071735;28;20415;-71
2022/10/19 01:31:33;;;;;;;1999.90;999.90;;;10.60;99.90;;;;;;5071922;28;20422;-71
2022/10/19 01:34:30;;;;;;;1999.90;999.90;;;10.60;99.90;;;;;;5071977;28;20174;-71
2022/10/19 01:37:02;;;;;;;1999.90;999.90;;;10.60;99.90;;;;;;5071632;28;20401;-71
2022/10/19 01:39:34;;;;;;;1999.90;999.90;;;10.60;99.90;;;;;;5071855;28;20396;-71
2022/10/19 01:42:02;;;;;;;1999.90;999.90;;;10.60;99.90;;;;;;5071649;28;20453;-71
2022/10/19 01:44:36;;;;;;;1999.90;999.90;;;10.50;99.90;;;;;;5071794;28;20466;-71
2022/10/19 01:47:05;;;;;;;1999.90;999.90;;;10.50;99.90;;;;;;5071622;28;20403;-71
2022/10/19 01:49:37;;;;;;;1999.90;999.90;;;10.40;99.90;;;;;;5071774;28;20403;-70
2022/10/19 01:52:05;;;;;;;1999.90;999.90;;;10.40;99.90;;;;;;5071796;28;20952;-70
2022/10/19 01:54:37;;;;;;;1999.90;999.90;;;10.30;99.90;;;;;;5073551;28;20415;-72
2022/10/19 01:57:06;;;;;;;1999.90;999.90;;;10.30;99.90;;;;;;5075793;28;20972;-71
2022/10/19 01:59:33;;;;;;;1999.90;999.90;;;10.30;99.90;;;;;;5075660;28;20419;-71
2022/10/19 02:01:59;;;;;;;1999.90;999.90;;;10.30;99.90;;;;;;5075487;28;20468;-71
2022/10/19 02:04:25;;;;;;;1999.90;999.90;;;10.30;99.90;;;;;;5075628;28;20408;-71
2022/10/19 02:06:54;;;;;;;1999.90;999.90;;;10.20;99.90;;;;;;5075345;28;20400;-71
2022/10/19 02:09:20;;;;;;;1999.90;999.90;;;10.20;99.90;;;;;;5075413;28;20408;-71
2022/10/19 02:11:49;;;;;;;1999.90;999.90;;;10.20;99.90;;;;;;5075664;28;20792;-70
2022/10/19 02:14:21;;;;;;;1999.90;999.90;;;10.20;99.90;;;;;;5075484;28;20427;-71
2022/10/19 02:16:56;;;;;;;1999.90;999.90;;;10.20;99.90;;;;;;5075113;28;20408;-71
2022/10/19 02:19:22;;;;;;;1999.90;999.90;;;10.00;99.90;;;;;;5075249;28;20501;-71
2022/10/19 02:21:48;;;;;;;1999.90;999.90;;;10.10;99.90;;;;;;5075022;28;20537;-71
2022/10/19 02:24:14;;;;;;;1999.90;999.90;;;10.10;99.90;;;;;;5075243;28;20171;-71
2022/10/19 02:26:41;;;;;;;1999.90;999.90;;;10.10;99.90;;;;;;5074851;28;20548;-72
2022/10/19 02:29:08;;;;;;;1999.90;999.90;;;10.10;99.90;;;;;;5075102;28;20699;-71
2022/10/19 02:31:34;;;;;;;1999.90;999.90;;;10.00;99.90;;;;;;5074980;28;20511;-71
2022/10/19 02:34:00;;;;;;;1999.90;999.90;;;10.00;99.90;;;;;;5075002;28;20913;-71
2022/10/19 02:36:26;;;;;;;1999.90;999.90;;;9.90;99.90;;;;;;5074907;28;21075;-71
2022/10/19 02:38:51;;;;;;;1999.90;999.90;;;10.00;99.90;;;;;;5074912;28;20465;-71
2022/10/19 02:41:38;;;;;;;1999.90;999.90;;;10.00;99.90;;;;;;5074739;28;20667;-71
2022/10/19 02:44:09;;;;;;;1999.90;999.90;;;10.00;99.90;;;;;;5074930;28;20180;-71
2022/10/19 02:46:41;;;;;;;1999.90;999.90;;;10.00;99.90;;;;;;5074849;28;20892;-71
2022/10/19 02:49:09;;;;;;;1999.90;999.90;;;9.90;99.90;;;;;;5074695;28;20886;-71
2022/10/19 02:51:37;;;;;;;1999.90;999.90;;;9.90;99.90;;;;;;5074556;28;20475;-71
2022/10/19 02:54:04;;;;;;;1999.90;999.90;;;9.90;99.90;;;;;;5074638;28;20417;-72
2022/10/19 02:56:30;;;;;;;1999.90;999.90;;;9.90;99.90;;;;;;5074515;28;20420;-71
2022/10/19 02:58:56;;;;;;;1999.90;999.90;;;9.90;99.90;;;;;;5074379;28;20510;-71
2022/10/19 03:01:22;;;;;;;1999.90;999.90;;;9.90;99.90;;;;;;5074335;28;20439;-72
2022/10/19 03:03:47;;;;;;;1999.90;999.90;;;9.80;99.90;;;;;;5074606;28;20168;-71
2022/10/19 03:06:13;;;;;;;1999.90;999.90;;;9.70;99.90;;;;;;5073699;28;20629;-71
2022/10/19 03:08:38;;;;;;;1999.90;999.90;;;9.70;99.90;;;;;;5074254;28;20273;-71
2022/10/19 03:11:04;;;;;;;1999.90;999.90;;;9.70;99.90;;;;;;5074506;28;20193;-71
2022/10/19 03:13:30;;;;;;;1999.90;999.90;;;9.60;99.90;;;;;;5074360;28;20168;-71
2022/10/19 03:15:55;;;;;;;1999.90;999.90;;;9.60;99.90;;;;;;5074106;28;20249;-71
2022/10/19 03:18:21;;;;;;;1999.90;999.90;;;9.60;99.90;;;;;;5074072;28;20547;-71
2022/10/19 03:20:47;;;;;;;1999.90;999.90;;;9.50;99.90;;;;;;5074107;28;20173;-71
2022/10/19 03:23:12;;;;;;;1999.90;999.90;;;9.50;99.90;;;;;;5074077;28;20203;-71
2022/10/19 03:25:38;;;;;;;1999.90;999.90;;;9.40;99.90;;;;;;5074055;28;20178;-71
2022/10/19 03:28:03;;;;;;;1999.90;999.90;;;9.30;99.90;;;;;;5073786;28;20171;-71
2022/10/19 03:30:29;;;;;;;1999.90;999.90;;;9.10;99.90;;;;;;5073982;28;20198;-71
2022/10/19 03:32:54;;;;;;;1999.90;999.90;;;9.10;99.90;;;;;;5073982;28;20220;-71
2022/10/19 03:35:20;;;;;;;1999.90;999.90;;;9.20;99.90;;;;;;5073930;28;20182;-71
2022/10/19 03:37:45;;;;;;;1999.90;999.90;;;9.10;99.90;;;;;;5073712;28;20679;-71
2022/10/19 03:40:11;;;;;;;1999.90;999.90;;;9.10;99.90;;;;;;5073815;28;20655;-71
2022/10/19 03:42:37;;;;;;;1999.90;999.90;;;9.10;99.90;;;;;;5073628;28;20329;-71
2022/10/19 03:45:03;;;;;;;1999.90;999.90;;;9.00;99.90;;;;;;5073603;28;20169;-71
2022/10/19 03:47:28;;;;;;;1999.90;999.90;;;9.00;99.90;;;;;;5073415;28;20259;-71
2022/10/19 03:49:54;;;;;;;1999.90;999.90;;;9.00;99.90;;;;;;5073531;28;20432;-71
2022/10/19 03:52:20;;;;;;;1999.90;999.90;;;8.90;99.90;;;;;;5073421;28;20202;-71
2022/10/19 03:54:49;;;;;;;1999.90;999.90;;;9.00;99.90;;;;;;5073542;28;20171;-71
2022/10/19 03:57:15;;;;;;;1999.90;999.90;;;9.00;99.90;;;;;;5073353;28;20712;-71
2022/10/19 03:59:40;;;;;;;1999.90;999.90;;;9.00;99.90;;;;;;5073311;28;20530;-71
2022/10/19 04:02:06;;;;;;;1999.90;999.90;;;9.00;99.90;;;;;;5073317;28;20209;-72
2022/10/19 04:04:32;;;;;;;1999.90;999.90;;;8.90;99.90;;;;;;5073355;28;20164;-71
2022/10/19 04:06:57;;;;;;;1999.90;999.90;;;8.80;99.90;;;;;;5073079;28;20176;-71
2022/10/19 04:09:23;;;;;;;1999.90;999.90;;;8.80;99.90;;;;;;5073115;28;20240;-71
2022/10/19 04:11:49;;;;;;;1999.90;999.90;;;8.80;99.90;;;;;;5073084;28;20191;-71
2022/10/19 04:14:17;;;;;;;1999.90;999.90;;;8.90;99.90;;;;;;5073181;28;20184;-70
2022/10/19 04:16:42;;;;;;;1999.90;999.90;;;8.90;99.90;;;;;;5072956;28;20885;-71
2022/10/19 04:19:13;;;;;;;1999.90;999.90;;;8.90;99.90;;;;;;5073242;28;20467;-72
2022/10/19 04:21:40;;;;;;;1999.90;999.90;;;8.90;99.90;;;;;;5072935;28;20202;-71
2022/10/19 04:24:08;;;;;;;1999.90;999.90;;;8.90;99.90;;;;;;5072924;28;20406;-71
2022/10/19 04:26:38;;;;;;;1999.90;999.90;;;8.90;99.90;;;;;;5072739;28;20445;-69
2022/10/19 04:29:04;;;;;;;1999.90;999.90;;;8.90;99.90;;;;;;5073038;28;20835;-71
2022/10/19 04:31:29;;;;;;;1999.90;999.90;;;8.90;99.90;;;;;;5072934;28;20460;-70
2022/10/19 04:33:55;;;;;;;1999.90;999.90;;;8.90;99.90;;;;;;5072730;28;20180;-70
2022/10/19 04:36:21;;;;;;;1999.90;999.90;;;8.80;99.90;;;;;;5072673;28;20690;-70
2022/10/19 04:38:47;;;;;;;1999.90;999.90;;;8.90;99.90;;;;;;5072450;28;20410;-70
2022/10/19 04:41:15;;;;;;;1999.90;999.90;;;8.80;99.90;;;;;;5072496;28;20427;-71
2022/10/19 04:43:44;;;;;;;1999.90;999.90;;;8.70;99.90;;;;;;5072859;28;20546;-71
2022/10/19 04:46:13;;;;;;;1999.90;999.90;;;8.80;99.90;;;;;;5072329;28;20414;-69
2022/10/19 04:48:40;;;;;;;1999.90;999.90;;;8.80;99.90;;;;;;5072381;28;20403;-71
2022/10/19 04:51:06;;;;;;;1999.90;999.90;;;8.70;99.90;;;;;;5072317;28;20434;-71
2022/10/19 04:53:34;;;;;;;1999.90;999.90;;;8.60;99.90;;;;;;5072440;28;20788;-72
2022/10/19 04:56:03;;;;;;;1999.90;999.90;;;8.60;99.90;;;;;;5072226;28;20412;-71
2022/10/19 04:58:29;;;;;;;1999.90;999.90;;;8.50;99.90;;;;;;5072091;28;20409;-71
2022/10/19 05:00:55;;;;;;;1999.90;999.90;;;8.50;99.90;;;;;;5072184;28;20504;-71
2022/10/19 05:03:20;;;;;;;1999.90;999.90;;;8.40;99.90;;;;;;5072280;28;20212;-71
2022/10/19 05:05:46;;;;;;;1999.90;999.90;;;8.30;99.90;;;;;;5072185;28;20178;-71
2022/10/19 05:08:11;;;;;;;1999.90;999.90;;;8.30;99.90;;;;;;5071795;28;20168;-71
2022/10/19 05:10:37;;;;;;;1999.90;999.90;;;8.20;99.90;;;;;;5072199;28;20199;-71
2022/10/19 05:13:03;;;;;;;1999.90;999.90;;;8.20;99.90;;;;;;5072028;28;20195;-71
2022/10/19 05:15:29;;;;;;;1999.90;999.90;;;8.20;99.90;;;;;;5072082;28;20173;-71
2022/10/19 05:17:55;;;;;;;1999.90;999.90;;;8.10;99.90;;;;;;5071841;28;20404;-71
2022/10/19 05:20:21;;;;;;;1999.90;999.90;;;8.10;99.90;;;;;;5072057;28;20406;-71
2022/10/19 05:22:47;;;;;;;1999.90;999.90;;;8.10;99.90;;;;;;5071852;28;20464;-71
2022/10/19 05:25:13;;;;;;;1999.90;999.90;;;8.00;99.90;;;;;;5071940;28;20407;-70
2022/10/19 05:27:38;;;;;;;1999.90;999.90;;;8.00;99.90;;;;;;5071669;28;20663;-71
2022/10/19 05:30:05;;;;;;;1999.90;999.90;;;8.10;99.90;;;;;;5071510;28;20180;-71
2022/10/19 05:32:31;;;;;;;1999.90;999.90;;;8.00;99.90;;;;;;5071899;28;20248;-71
2022/10/19 05:34:56;;;;;;;1999.90;999.90;;;7.90;99.90;;;;;;5071962;28;20896;-71
2022/10/19 05:37:24;;;;;;;1999.90;999.90;;;7.90;99.90;;;;;;5071599;28;20171;-71
2022/10/19 05:39:50;;;;;;;1999.90;999.90;;;7.90;99.90;;;;;;5071984;28;20183;-71
2022/10/19 05:42:15;;;;;;;1999.90;999.90;;;7.80;99.90;;;;;;5071693;28;20475;-71
2022/10/19 05:44:41;;;;;;;1999.90;999.90;;;7.80;99.90;;;;;;5071843;28;20216;-71
2022/10/19 05:47:07;;;;;;;1999.90;999.90;;;7.80;99.90;;;;;;5071646;28;20548;-71
2022/10/19 05:49:32;;;;;;;1999.90;999.90;;;7.80;99.90;;;;;;5071739;28;20762;-72
2022/10/19 05:51:58;;;;;;;1999.90;999.90;;;7.80;99.90;;;;;;5071555;28;20212;-71
2022/10/19 05:54:24;;;;;;;1999.90;999.90;;;7.90;99.90;;;;;;5071714;28;20531;-71
2022/10/19 05:56:49;;;;;;;1999.90;999.90;;;7.80;99.90;;;;;;5071557;28;20179;-71
2022/10/19 05:59:18;;;;;;;1999.90;999.90;;;7.90;99.90;;;;;;5071600;28;20687;-71
2022/10/19 06:01:45;;;;;;;1999.90;999.90;;;7.90;99.90;;;;;;5071521;28;20668;-71
2022/10/19 06:04:13;;;;;;;1999.90;999.90;;;7.90;99.90;;;;;;5071670;28;20492;-71
2022/10/19 06:06:40;;;;;;;1999.90;999.90;;;7.90;99.90;;;;;;5071221;28;20451;-71
2022/10/19 06:09:06;;;;;;;1999.90;999.90;;;7.90;99.90;;;;;;5071590;28;20398;-71
2022/10/19 06:11:34;;;;;;;1999.90;999.90;;;7.90;99.90;;;;;;5071496;28;21067;-71
2022/10/19 06:14:03;;;;;;;1999.90;999.90;;;7.80;99.90;;;;;;5071518;28;20512;-71
2022/10/19 06:16:30;;;;;;;1999.90;999.90;;;7.90;99.90;;;;;;5071697;28;20922;-71
2022/10/19 06:18:56;;;;;;;1999.90;999.90;;;7.90;99.90;;;;;;5071337;28;20449;-71
2022/10/19 06:21:24;;;;;;;1999.90;999.90;;;8.00;99.90;;;;;;5071137;28;20434;-71
2022/10/19 06:23:51;;;;;;;1999.90;999.90;;;8.00;99.90;;;;;;5071498;28;20476;-71
2022/10/19 06:26:17;;;;;;;1999.90;999.90;;;8.00;99.90;;;;;;5071411;28;20432;-71
2022/10/19 06:28:44;;;;;;;1999.90;999.90;;;8.00;99.90;;;;;;5071271;28;20800;-71
2022/10/19 06:31:11;;;;;;;1999.90;999.90;;;8.10;99.90;;;;;;5071320;28;20200;-71
2022/10/19 06:33:39;;;;;;;1999.90;999.90;;;8.10;99.90;;;;;;5071404;28;20408;-71
2022/10/19 06:36:10;;;;;;;1999.90;999.90;;;8.10;99.90;;;;;;5071111;28;20424;-71
2022/10/19 06:38:35;;;;;;;1999.90;999.90;;;8.10;99.90;;;;;;5071093;28;20405;-71
2022/10/19 06:41:01;;;;;;;1999.90;999.90;;;8.20;99.90;;;;;;5072206;28;20489;-71
2022/10/19 06:43:27;;;;;;;1999.90;999.90;;;8.20;99.90;;;;;;5074770;28;20595;-71
2022/10/19 06:45:53;;;;;;;1999.90;999.90;;;8.20;99.90;;;;;;5074759;28;20167;-71
2022/10/19 06:48:18;;;;;;;1999.90;999.90;;;8.30;99.90;;;;;;5074620;28;20159;-71
2022/10/19 06:50:44;;;;;;;1999.90;999.90;;;8.40;99.90;;;;;;5074543;28;20413;-70
2022/10/19 06:53:10;;;;;;;1999.90;999.90;;;8.50;99.90;;;;;;5074752;28;20622;-71
2022/10/19 06:55:36;;;;;;;1999.90;999.90;;;8.50;99.90;;;;;;5074700;28;20172;-71
2022/10/19 06:58:02;;;;;;;1999.90;999.90;;;8.60;99.90;;;;;;5074384;28;20889;-71
2022/10/19 07:00:28;;;;;;;1999.90;999.90;;;8.60;99.90;;;;;;5074547;28;20459;-71
2022/10/19 07:02:54;;;;;;;1999.90;999.90;;;8.70;99.90;;;;;;5074346;28;20857;-71
2022/10/19 07:05:20;;;;;;;1999.90;999.90;;;8.70;99.90;;;;;;5074682;28;20408;-71
2022/10/19 07:07:46;;;;;;;1999.90;999.90;;;8.80;99.90;;;;;;5074190;28;20427;-71
2022/10/19 07:10:12;;;;;;;1999.90;999.90;;;8.90;99.90;;;;;;5074869;28;20432;-71
2022/10/19 07:12:37;;;;;;;1999.90;999.90;;;8.90;99.90;;;;;;5074286;28;20262;-71
2022/10/19 07:15:03;;;;;;;1999.90;999.90;;;8.90;99.90;;;;;;5074366;28;20175;-71
2022/10/19 07:17:29;;;;;;;1999.90;999.90;;;9.00;99.90;;;;;;5073951;28;20261;-72
2022/10/19 07:19:54;;;;;;;1999.90;999.90;;;9.00;99.90;;;;;;5074067;28;20489;-71
2022/10/19 07:22:20;;;;;;;1999.90;999.90;;;9.00;99.90;;;;;;5074087;28;20209;-71
2022/10/19 07:24:46;;;;;;;1999.90;999.90;;;9.00;99.90;;;;;;5074289;28;20650;-71
2022/10/19 07:27:11;;;;;;;1999.90;999.90;;;9.00;99.90;;;;;;5073893;28;20171;-71
2022/10/19 07:29:37;;;;;;;1999.90;999.90;;;9.10;99.90;;;;;;5074013;28;20172;-71
2022/10/19 07:32:03;;;;;;;1999.90;999.90;;;9.20;99.90;;;;;;5073883;28;20740;-71
2022/10/19 07:34:28;;;;;;;1999.90;999.90;;;9.40;99.90;;;;;;5073896;28;20642;-71
2022/10/19 07:36:54;;;;;;;1999.90;999.90;;;9.50;99.90;;;;;;5073686;28;20543;-71
2022/10/19 07:39:19;;;;;;;1999.90;999.90;;;9.60;99.90;;;;;;5073793;28;20171;-72
2022/10/19 07:41:45;;;;;;;1999.90;999.90;;;9.70;99.90;;;;;;5073778;28;20732;-71
2022/10/19 07:44:12;;;;;;;1999.90;999.90;;;9.80;99.90;;;;;;5073814;28;20197;-71
2022/10/19 07:46:38;;;;;;;1999.90;999.90;;;10.00;99.90;;;;;;5073429;28;20167;-71
2022/10/19 07:49:09;;;;;;;1999.90;999.90;;;10.10;99.90;;;;;;5073608;28;20404;-71
2022/10/19 07:51:36;;;;;;;1999.90;999.90;;;10.20;99.90;;;;;;5073158;28;20450;-71
2022/10/19 07:54:02;;;;;;;1999.90;999.90;;;10.30;99.90;;;;;;5073564;28;20504;-71
2022/10/19 07:56:29;;;;;;;1999.90;999.90;;;10.40;99.90;;;;;;5073435;28;20436;-71
2022/10/19 07:58:56;;;;;;;1999.90;999.90;;;10.40;99.90;;;;;;5073352;28;20411;-71
2022/10/19 08:01:28;;;;;;;1999.90;999.90;;;10.40;99.90;;;;;;5073215;28;20432;-72
2022/10/19 08:03:55;;;;;;;1999.90;999.90;;;10.50;99.90;;;;;;5073377;28;20397;-71
2022/10/19 08:06:21;;;;;;;1999.90;999.90;;;10.60;99.90;;;;;;5073210;28;20401;-71
2022/10/19 08:08:48;;;;;;;1999.90;999.90;;;10.60;99.90;;;;;;5073051;28;20415;-71
2022/10/19 08:11:17;;;;;;;1999.90;999.90;;;10.60;99.90;;;;;;5073158;28;20950;-71
2022/10/19 08:13:42;;;;;;;1999.90;999.90;;;10.60;99.90;;;;;;5073083;28;20406;-71
2022/10/19 08:16:20;;;;;;;1999.90;999.90;;;10.60;99.90;;;;;;5073021;28;20480;-72
2022/10/19 08:18:45;;;;;;;1999.90;999.90;;;10.60;99.90;;;;;;5072857;28;20204;-71
2022/10/19 08:21:11;;;;;;;1999.90;999.90;;;10.80;99.90;;;;;;5072937;28;20468;-71
2022/10/19 08:23:37;;;;;;;1999.90;999.90;;;10.80;99.90;;;;;;5072867;28;20213;-72
2022/10/19 08:26:02;;;;;;;1999.90;999.90;;;10.80;99.90;;;;;;5072857;28;20215;-71
2022/10/19 08:28:28;;;;;;;1999.90;999.90;;;10.90;99.90;;;;;;5072683;28;20645;-71
2022/10/19 08:30:57;;;;;;;1999.90;999.90;;;10.80;99.90;;;;;;5072918;28;20178;-71
2022/10/19 08:33:24;;;;;;;1999.90;999.90;;;11.00;99.90;;;;;;5072727;28;20252;-71
2022/10/19 08:35:49;;;;;;;1999.90;999.90;;;11.10;99.90;;;;;;5072685;28;20414;-71
2022/10/19 08:38:15;;;;;;;1999.90;999.90;;;11.10;99.90;;;;;;5072481;28;20404;-71
2022/10/19 08:40:43;;;;;;;1999.90;999.90;;;11.20;99.90;;;;;;5072679;28;20263;-71
2022/10/19 08:43:35;;;;;;;1999.90;999.90;;;11.20;99.90;;;;;;5072401;28;20234;-71
2022/10/19 08:46:23;;;;;;;1999.90;999.90;;;11.30;99.90;;;;;;5072174;28;20489;-71
2022/10/19 08:48:50;;;;;;;1999.90;999.90;;;11.40;99.90;;;;;;5071250;28;20405;-71
2022/10/19 08:51:16;;;;;;;1999.90;999.90;;;11.50;99.90;;;;;;5072200;28;20792;-71
2022/10/19 08:53:41;;;;;;;1999.90;999.90;;;11.60;99.90;;;;;;5072219;28;20488;-70
2022/10/19 08:56:24;;;;;;;1999.90;999.90;;;11.60;99.90;;;;;;5069076;28;20182;-69
2022/10/19 08:59:05;;;;;;;1999.90;999.90;;;11.50;99.90;;;;;;5070701;28;20177;-69
2022/10/19 09:01:45;;;;;;;1999.90;999.90;;;11.70;99.90;;;;;;5070621;28;20932;-69
2022/10/19 09:04:43;;;;;;;1999.90;999.90;;;11.60;99.90;;;;;;5070481;28;20817;-69
2022/10/19 09:07:26;;;;;;;1999.90;999.90;;;11.70;99.90;;;;;;4998877;28;20580;-69
2022/10/19 09:09:58;;;;;;;1999.90;999.90;;;11.80;99.90;;;;;;5067682;28;20393;-69
2022/10/19 09:12:55;;;;;;;1999.90;999.90;;;11.80;99.90;;;;;;5071208;28;20433;-69
2022/10/19 09:15:40;;;;;;;1999.90;999.90;;;12.00;99.90;;;;;;5070936;28;20446;-69
2022/10/19 09:18:19;;;;;;;1999.90;999.90;;;12.30;99.90;;;;;;5070489;28;20410;-69
2022/10/19 09:20:48;;;;;;;1999.90;999.90;;;12.50;99.90;;;;;;5071421;28;20410;-70
2022/10/19 09:23:27;;;;;;;1999.90;999.90;;;12.60;99.90;;;;;;5053618;28;20469;-70
2022/10/19 09:25:54;;;;;;;1999.90;999.90;;;12.60;99.90;;;;;;5071341;28;20413;-70
2022/10/19 09:28:41;;;;;;;1999.90;999.90;;;12.50;99.90;;;;;;5071428;28;20918;-70
2022/10/19 09:31:14;;;;;;;1999.90;999.90;;;12.50;99.90;;;;;;5071463;28;20924;-70
2022/10/19 09:33:42;;;;;;;1999.90;999.90;;;12.60;99.90;;;;;;5070020;28;20405;-70
2022/10/19 09:36:08;;;;;;;1999.90;999.90;;;12.60;99.90;;;;;;5070806;28;20902;-71
2022/10/19 09:38:34;;;;;;;1999.90;999.90;;;12.70;99.90;;;;;;5070553;28;20484;-70
2022/10/19 09:41:19;;;;;;;1999.90;999.90;;;12.80;99.90;;;;;;5069981;28;20887;-69
2022/10/19 09:43:51;;;;;;;1999.90;999.90;;;12.80;99.90;;;;;;5069603;28;20640;-70
2022/10/19 09:46:38;;;;;;;1999.90;999.90;;;12.90;99.90;;;;;;5070770;28;20801;-71
2022/10/19 09:49:04;;;;;;;1999.90;999.90;;;12.90;99.90;;;;;;5070923;28;20413;-70
2022/10/19 09:51:51;;;;;;;1999.90;999.90;;;13.00;99.90;;;;;;5070764;28;20442;-69
2022/10/19 09:54:33;;;;;;;1999.90;999.90;;;13.10;99.90;;;;;;5070094;28;20416;-70
2022/10/19 09:56:59;;;;;;;1999.90;999.90;;;13.20;99.90;;;;;;5070536;28;20862;-70
2022/10/19 09:59:29;;;;;;;1999.90;999.90;;;13.30;99.90;;;;;;5070380;28;20406;-70
2022/10/19 10:02:14;;;;;;;1999.90;999.90;;;13.50;99.90;;;;;;5071115;28;20220;-70
2022/10/19 10:04:39;;;;;;;1999.90;999.90;;;13.80;99.90;;;;;;5070853;28;20408;-70
2022/10/19 10:07:05;;;;;;;1999.90;999.90;;;14.00;99.90;;;;;;5070768;28;20390;-71
2022/10/19 10:09:36;;;;;;;1999.90;999.90;;;14.20;99.90;;;;;;5070468;28;20231;-70
2022/10/19 10:12:07;;;;;;;1999.90;999.90;;;14.40;99.90;;;;;;5071080;28;20183;-70
2022/10/19 10:14:35;;;;;;;1999.90;999.90;;;14.30;99.90;;;;;;5070647;28;20423;-70
2022/10/19 10:17:03;;;;;;;1999.90;999.90;;;14.20;99.90;;;;;;5074187;28;20408;-70
2022/10/19 10:19:32;;;;;;;1999.90;999.90;;;14.20;99.90;;;;;;5074444;28;20434;-70
2022/10/19 10:21:59;;;;;;;1999.90;999.90;;;14.20;99.90;;;;;;5074698;28;20476;-70
2022/10/19 10:24:27;;;;;;;1999.90;999.90;;;14.10;99.90;;;;;;5074103;28;20495;-70
2022/10/19 10:27:01;;;;;;;1999.90;999.90;;;14.20;99.90;;;;;;5074372;28;20403;-70
2022/10/19 10:29:30;;;;;;;1999.90;999.90;;;14.40;99.90;;;;;;5074521;28;20756;-70
2022/10/19 10:32:11;;;;;;;1999.90;999.90;;;14.60;99.90;;;;;;5074233;28;20433;-70
2022/10/19 10:34:40;;;;;;;1999.90;999.90;;;14.90;99.90;;;;;;5073854;28;20408;-70
2022/10/19 10:37:15;;;;;;;1999.90;999.90;;;15.00;99.90;;;;;;5073955;28;20406;-70
2022/10/19 10:39:42;;;;;;;1999.90;999.90;;;15.10;99.90;;;;;;5073394;28;20447;-70
2022/10/19 10:42:18;;;;;;;1999.90;999.90;;;15.30;99.90;;;;;;5074117;28;20826;-70
2022/10/19 10:44:47;;;;;;;1999.90;999.90;;;15.60;99.90;;;;;;5074025;28;20837;-70
2022/10/19 10:47:15;;;;;;;1999.90;999.90;;;15.70;99.90;;;;;;5073459;28;20820;-70
2022/10/19 10:49:42;;;;;;;1999.90;999.90;;;15.80;99.90;;;;;;5074105;28;20488;-71
2022/10/19 10:52:14;;;;;;;1999.90;999.90;;;15.80;99.90;;;;;;5074101;28;20821;-71
2022/10/19 10:54:39;;;;;;;1999.90;999.90;;;16.00;99.90;;;;;;5073212;28;20435;-71
2022/10/19 10:57:10;;;;;;;1999.90;999.90;;;16.20;99.90;;;;;;5073639;28;20407;-71
2022/10/19 10:59:46;;;;;;;1999.90;999.90;;;16.40;99.90;;;;;;5074071;28;20233;-70
2022/10/19 11:02:16;;;;;;;1999.90;999.90;;;16.60;99.90;;;;;;5073562;28;20444;-71
2022/10/19 11:04:49;;;;;;;1999.90;999.90;;;16.70;99.90;;;;;;5073575;28;20447;-70
2022/10/19 11:07:22;;;;;;;1999.90;999.90;;;16.80;99.90;;;;;;5073694;28;20397;-70
2022/10/19 11:09:53;;;;;;;1999.90;999.90;;;16.90;99.90;;;;;;5073272;28;20458;-70
2022/10/19 11:12:51;;;;;;;1999.90;999.90;;;17.10;99.90;;;;;;5073873;28;20428;-70
2022/10/19 11:15:26;;;;;;;1999.90;999.90;;;17.20;99.90;;;;;;5058263;28;20429;-70
2022/10/19 11:18:21;;;;;;;1999.90;999.90;;;17.50;99.90;;;;;;5073269;28;20405;-71
2022/10/19 11:21:09;;;;;;;1999.90;999.90;;;18.00;99.90;;;;;;5071344;28;20511;-71
2022/10/19 11:24:00;;;;;;;1999.90;999.90;;;18.60;99.90;;;;;;5073279;28;20863;-71
2022/10/19 11:26:57;;;;;;;1999.90;999.90;;;19.40;99.90;;;;;;5072532;28;20448;-71
2022/10/19 11:30:02;;;;;;;1999.90;999.90;;;20.30;99.90;;;;;;5072488;28;20409;-71
2022/10/19 11:32:33;;;;;;;1999.90;999.90;;;21.10;99.90;;;;;;5073610;28;20419;-71
2022/10/19 11:35:24;;;;;;;1999.90;999.90;;;22.00;99.90;;;;;;5072885;28;20423;-71
2022/10/19 11:38:23;;;;;;;1999.90;999.90;;;22.70;99.90;;;;;;5072297;28;20401;-72
2022/10/19 11:40:55;;;;;;;1999.90;999.90;;;23.40;99.90;;;;;;5035140;28;20795;-71
2022/10/19 11:43:53;;;;;;;1999.90;999.90;;;24.00;99.90;;;;;;5073126;28;20422;-71
2022/10/19 11:46:28;;;;;;;1999.90;999.90;;;24.50;99.90;;;;;;5072227;28;20754;-71
2022/10/19 11:49:15;;;;;;;1999.90;999.90;;;24.80;99.90;;;;;;5072976;28;20495;-71
2022/10/19 11:52:25;;;;;;;1999.90;999.90;;;25.10;97.80;;;;;;5073116;28;20460;-71
2022/10/19 11:54:54;;;;;;;1999.90;999.90;;;25.60;93.70;;;;;;5051719;28;20467;-71
2022/10/19 11:57:46;;;;;;;1999.90;999.90;;;25.90;90.70;;;;;;5072780;28;20997;-71
2022/10/19 12:00:17;;;;;;;1999.90;999.90;;;26.20;75.00;;;;;;5061456;28;20410;-72
2022/10/19 12:02:42;;;;;;;1999.90;999.90;;;26.10;66.10;;;;;;5072948;28;20447;-72
2022/10/19 12:05:16;;;;;;;1999.90;999.90;;;26.10;68.30;;;;;;5072546;28;20930;-71
2022/10/19 12:07:50;;;;;;;1999.90;999.90;;;26.40;71.50;;;;;;5071756;28;20171;-72
2022/10/19 12:10:41;;;;;;;1999.90;999.90;;;26.80;62.30;;;;;;5072738;28;20399;-71
2022/10/19 12:13:15;;;;;;;1999.90;999.90;;;27.20;57.80;;;;;;5072767;28;20498;-72
2022/10/19 12:15:48;;;;;;;1999.90;999.90;;;27.50;53.90;;;;;;5072316;28;20405;-72
2022/10/19 12:18:32;;;;;;;1999.90;999.90;;;27.60;48.40;;;;;;5072442;28;20404;-71